Time;durP1;ratioP1;P1;durP2;ratioP2;P2;SDS_P1;SDS_P2;PMS_P1;PMS_P2;Temp;Humidity;BMP_temperature;BMP_pressure;BME280_temperature;BME280_humidity;BME280_pressure;Samples;Min_cycle;Max_cycle;Signal;HPM_P1;HPM_P2
2022/10/13 05:31:35;;;;;;;;;;;;;;;17.50;76.32;97413.28;4248271;27;10353;-77
2022/10/13 05:33:42;;;;;;;;;;;;;;;17.80;75.75;97413.38;4242307;27;5696;-76
2022/10/13 05:35:45;;;;;;;;;;;;;;;18.01;74.98;97418.28;4244012;27;5597;-75
2022/10/13 05:37:48;;;;;;;;;;;;;;;18.18;74.44;97417.63;4245466;27;6762;-77
2022/10/13 05:39:51;;;;;;;;;;;;;;;18.30;73.92;97410.47;4241161;27;5677;-76
2022/10/13 05:41:54;;;;;;;;;;;;;;;18.40;73.66;97408.06;4245710;27;5609;-76
2022/10/13 05:44:01;;;;;;;;;;;;;;;18.47;73.27;97403.44;4247096;27;5796;-76
2022/10/13 05:46:04;;;;;;;;;;;;;;;18.55;73.14;97404.97;4219755;27;7017;-74
2022/10/13 05:48:08;;;;;;;;;;;;;;;18.61;72.79;97404.06;4250573;27;5712;-74
2022/10/13 05:50:11;;;;;;;;;;;;;;;18.67;72.56;97408.53;4250176;27;5665;-72
2022/10/13 05:52:14;;;;;;;;;;;;;;;18.73;72.38;97412.16;4247546;27;5605;-72
2022/10/13 05:54:28;;;;;;;;;;;;;;;18.73;72.16;97415.66;4248237;27;5753;-73
2022/10/13 05:56:38;;;;;;;;;;;;;;;18.73;71.71;97406.81;4253025;27;5659;-74
2022/10/13 05:58:49;;;;;;;;;;;;;;;18.73;71.63;97406.81;4247378;27;5651;-74
2022/10/13 06:00:53;;;;;;;;;;;;;;;18.79;71.45;97408.53;4248080;27;5683;-74
2022/10/13 06:03:03;;;;;;;;;;;;;;;18.83;71.31;97409.72;4235757;27;5604;-74
2022/10/13 06:05:14;;;;;;;;;;;;;;;18.86;70.93;97395.88;4245192;27;5601;-73
2022/10/13 06:07:17;;;;;;;;;;;;;;;18.85;70.56;97403.09;4247907;27;5665;-73
2022/10/13 06:09:20;;;;;;;;;;;;;;;18.85;70.71;97396.91;4248252;27;5806;-73
2022/10/13 06:11:23;;;;;;;;;;;;;;;18.87;70.64;97402.84;4248187;27;5682;-73
2022/10/13 06:13:26;;;;;;;;;;;;;;;18.88;70.16;97401.81;4248066;27;5640;-74
2022/10/13 06:15:28;;;;;;;;;;;;;;;18.89;70.13;97398.06;4238255;27;5699;-74
2022/10/13 06:17:31;;;;;;;;;;;;;;;18.89;69.61;97401.56;4239726;27;5833;-74
2022/10/13 06:19:34;;;;;;;;;;;;;;;18.88;69.73;97401.81;4247682;27;6099;-74
2022/10/13 06:21:38;;;;;;;;;;;;;;;18.90;69.45;97407.75;4239381;27;5596;-74
2022/10/13 06:23:41;;;;;;;;;;;;;;;18.90;69.35;97405.06;4247808;27;5598;-74
2022/10/13 06:25:47;;;;;;;;;;;;;;;18.93;68.99;97415.34;4247722;27;5663;-74
2022/10/13 06:27:51;;;;;;;;;;;;;;;18.96;69.05;97425.59;4245234;27;5643;-74
2022/10/13 06:29:54;;;;;;;;;;;;;;;18.95;68.56;97421.28;4247458;27;5618;-74
2022/10/13 06:31:57;;;;;;;;;;;;;;;18.97;68.66;97419.19;4239835;27;5651;-74
2022/10/13 06:34:00;;;;;;;;;;;;;;;18.95;68.45;97421.28;4236316;27;5587;-74
2022/10/13 06:36:04;;;;;;;;;;;;;;;18.93;68.16;97420.69;4236103;28;5876;-74
2022/10/13 06:38:08;;;;;;;;;;;;;;;18.92;68.01;97413.72;4236378;28;5801;-73
2022/10/13 06:40:12;;;;;;;;;;;;;;;18.95;68.04;97415.91;4235842;28;5660;-74
2022/10/13 06:42:15;;;;;;;;;;;;;;;18.99;68.03;97405.56;4236232;28;5594;-74
2022/10/13 06:44:17;;;;;;;;;;;;;;;19.01;67.97;97408.81;4232238;28;5783;-73
2022/10/13 06:46:21;;;;;;;;;;;;;;;19.03;67.43;97407.56;4236168;28;5687;-73
2022/10/13 06:48:24;;;;;;;;;;;;;;;19.07;67.53;97419.44;4236162;28;5975;-73
2022/10/13 06:50:28;;;;;;;;;;;;;;;19.07;67.36;97414.06;4235945;28;5697;-72
2022/10/13 06:52:31;;;;;;;;;;;;;;;19.04;66.92;97405.69;4236115;28;5067;-73
2022/10/13 06:54:37;;;;;;;;;;;;;;;19.05;67.00;97408.13;4236304;28;5586;-73
2022/10/13 06:56:40;;;;;;;;;;;;;;;19.06;66.88;97407.06;4236182;28;5673;-73
2022/10/13 06:58:43;;;;;;;;;;;;;;;19.09;66.88;97411.97;4236106;28;5652;-73
2022/10/13 07:00:46;;;;;;;;;;;;;;;19.08;66.37;97410.34;4236155;27;5648;-75
2022/10/13 07:02:50;;;;;;;;;;;;;;;19.10;66.59;97408.25;4236057;28;5667;-75
2022/10/13 07:04:53;;;;;;;;;;;;;;;19.12;66.04;97416.84;4236240;27;5711;-77
2022/10/13 07:06:56;;;;;;;;;;;;;;;19.13;66.14;97415.81;4235707;28;5808;-76
2022/10/13 07:09:02;;;;;;;;;;;;;;;19.14;65.97;97409.44;4236118;28;5771;-76
2022/10/13 07:11:11;;;;;;;;;;;;;;;19.16;65.64;97412.69;4236090;28;5667;-76
2022/10/13 07:13:18;;;;;;;;;;;;;;;19.17;65.52;97414.31;4236153;27;5750;-77
2022/10/13 07:15:23;;;;;;;;;;;;;;;19.15;65.30;97413.72;4233957;28;5799;-76
2022/10/13 07:17:26;;;;;;;;;;;;;;;19.16;65.19;97411.88;4227573;28;5743;-77
2022/10/13 07:19:29;;;;;;;;;;;;;;;19.17;65.30;97413.50;4229367;28;5601;-77
2022/10/13 07:21:32;;;;;;;;;;;;;;;19.17;64.82;97408.94;4231859;28;5840;-76
2022/10/13 07:23:35;;;;;;;;;;;;;;;19.17;65.01;97403.59;4230728;28;6338;-76
2022/10/13 07:25:38;;;;;;;;;;;;;;;19.18;64.69;97402.53;4232808;27;5605;-76
2022/10/13 07:27:43;;;;;;;;;;;;;;;19.18;64.49;97402.53;4233816;28;6225;-77
2022/10/13 07:29:46;;;;;;;;;;;;;;;19.19;64.41;97404.16;4226052;28;5685;-76
2022/10/13 07:31:48;;;;;;;;;;;;;;;19.19;64.23;97398.81;4235426;28;5849;-77
2022/10/13 07:33:51;;;;;;;;;;;;;;;19.23;64.14;97401.00;4213651;28;7822;-75
2022/10/13 07:35:54;;;;;;;;;;;;;;;19.25;64.10;97406.94;4234234;28;5808;-76
2022/10/13 07:37:57;;;;;;;;;;;;;;;19.26;63.74;97408.63;4231924;28;5758;-76
2022/10/13 07:40:00;;;;;;;;;;;;;;;19.22;63.99;97399.38;4233972;28;5671;-75
2022/10/13 07:42:03;;;;;;;;;;;;;;;19.22;63.40;97400.19;4226449;28;5819;-76
2022/10/13 07:44:08;;;;;;;;;;;;;;;19.21;63.64;97398.56;4229382;28;5614;-77
2022/10/13 07:46:12;;;;;;;;;;;;;;;19.19;63.60;97396.13;4227810;28;5628;-77
2022/10/13 07:48:15;;;;;;;;;;;;;;;19.19;63.49;97406.84;4232816;28;5629;-76
2022/10/13 07:50:18;;;;;;;;;;;;;;;19.21;63.16;97403.94;4230726;28;5716;-76
2022/10/13 07:52:22;;;;;;;;;;;;;;;19.22;63.08;97402.88;4231065;28;5622;-75
2022/10/13 07:54:25;;;;;;;;;;;;;;;19.22;63.14;97400.19;4234414;28;5647;-76
2022/10/13 07:56:29;;;;;;;;;;;;;;;19.24;63.20;97402.66;4231794;28;5780;-75
2022/10/13 07:58:36;;;;;;;;;;;;;;;19.26;63.02;97401.38;4224221;28;5740;-75
2022/10/13 08:00:40;;;;;;;;;;;;;;;19.29;62.92;97400.09;4233128;28;5675;-75
2022/10/13 08:02:43;;;;;;;;;;;;;;;19.32;62.43;97404.97;4233982;28;5606;-75
2022/10/13 08:04:47;;;;;;;;;;;;;;;19.34;62.44;97405.56;4234835;28;5755;-75
2022/10/13 08:06:52;;;;;;;;;;;;;;;19.37;62.44;97394.38;4234125;28;5598;-75
2022/10/13 08:08:56;;;;;;;;;;;;;;;19.42;62.21;97400.66;4234600;28;5745;-75
2022/10/13 08:11:01;;;;;;;;;;;;;;;19.43;61.94;97396.13;4232263;28;5877;-75
2022/10/13 08:13:04;;;;;;;;;;;;;;;19.42;61.90;97389.94;4232238;28;5598;-75
2022/10/13 08:15:08;;;;;;;;;;;;;;;19.44;62.04;97397.75;4234543;28;5832;-75
2022/10/13 08:17:12;;;;;;;;;;;;;;;19.48;61.83;97391.69;4228562;28;5684;-75
2022/10/13 08:19:16;;;;;;;;;;;;;;;19.51;61.77;97397.63;4228061;28;5692;-76
2022/10/13 08:21:22;;;;;;;;;;;;;;;19.49;61.51;97405.91;4226997;28;5660;-76
2022/10/13 08:23:46;;;;;;;;;;;;;;;19.50;61.54;97399.50;4231519;28;5606;-76
2022/10/13 08:25:49;;;;;;;;;;;;;;;19.50;61.77;97410.22;4229172;27;5857;-75
2022/10/13 08:27:52;;;;;;;;;;;;;;;19.51;61.36;97409.19;4228072;28;5651;-76
2022/10/13 08:30:01;;;;;;;;;;;;;;;19.52;61.28;97415.34;4233975;28;5648;-76
2022/10/13 08:32:05;;;;;;;;;;;;;;;19.55;61.50;97420.25;4230096;28;5597;-75
2022/10/13 08:34:10;;;;;;;;;;;;;;;19.55;61.18;97410.34;4234254;28;5648;-75
2022/10/13 08:36:14;;;;;;;;;;;;;;;19.56;61.18;97408.50;4234015;28;5763;-75
2022/10/13 08:38:17;;;;;;;;;;;;;;;19.56;61.14;97403.94;4232743;28;5746;-75
2022/10/13 08:40:22;;;;;;;;;;;;;;;19.59;60.84;97408.81;4229009;27;5603;-75
2022/10/13 08:42:25;;;;;;;;;;;;;;;19.62;61.03;97411.06;4229080;28;5831;-76
2022/10/13 08:44:35;;;;;;;;;;;;;;;19.61;60.88;97401.38;4231075;28;5643;-75
2022/10/13 08:47:03;;;;;;;;;;;;;;;19.63;60.73;97401.16;4226854;28;5625;-75
2022/10/13 08:49:07;;;;;;;;;;;;;;;19.63;60.71;97401.97;4227240;28;5613;-75
2022/10/13 08:51:15;;;;;;;;;;;;;;;19.64;60.58;97403.59;4232996;28;5681;-75
2022/10/13 08:53:26;;;;;;;;;;;;;;;19.67;60.75;97396.94;4232690;28;5697;-75
2022/10/13 08:55:33;;;;;;;;;;;;;;;19.66;60.17;97380.03;4233966;28;5671;-75
2022/10/13 08:57:35;;;;;;;;;;;;;;;19.66;60.35;97376.53;4226660;28;5729;-75
2022/10/13 08:59:41;;;;;;;;;;;;;;;19.68;60.38;97382.47;4234402;28;5585;-77
2022/10/13 09:01:47;;;;;;;;;;;;;;;19.68;60.39;97372.53;4233929;28;5734;-77
2022/10/13 09:03:53;;;;;;;;;;;;;;;19.66;59.98;97377.34;4224597;28;5669;-76
2022/10/13 09:06:05;;;;;;;;;;;;;;;19.65;59.75;97391.81;4233826;27;5593;-76
2022/10/13 09:08:16;;;;;;;;;;;;;;;19.66;60.23;97390.75;4233646;28;5669;-76
2022/10/13 09:10:19;;;;;;;;;;;;;;;19.70;60.03;97402.63;4233646;28;5598;-76
2022/10/13 09:12:23;;;;;;;;;;;;;;;19.74;59.95;97398.44;4230663;28;5744;-76
2022/10/13 09:14:29;;;;;;;;;;;;;;;19.80;59.79;97395.84;4230420;28;5776;-76
2022/10/13 09:16:36;;;;;;;;;;;;;;;19.83;59.67;97396.22;4224079;28;5605;-76
2022/10/13 09:18:39;;;;;;;;;;;;;;;19.85;59.56;97404.81;4231311;28;5924;-76
2022/10/13 09:20:42;;;;;;;;;;;;;;;19.85;59.49;97396.78;4232122;28;5619;-76
2022/10/13 09:23:00;;;;;;;;;;;;;;;19.85;59.33;97399.47;4230891;28;5672;-76
2022/10/13 09:25:17;;;;;;;;;;;;;;;19.85;59.40;97399.47;4231982;27;6466;-76
2022/10/13 09:27:21;;;;;;;;;;;;;;;19.87;59.24;97404.59;4225914;28;5665;-76
2022/10/13 09:29:26;;;;;;;;;;;;;;;19.88;59.34;97400.84;4231481;28;6447;-76
2022/10/13 09:31:31;;;;;;;;;;;;;;;19.90;59.58;97396.06;4233504;28;5632;-76
2022/10/13 09:33:37;;;;;;;;;;;;;;;19.92;59.60;97399.31;4233864;28;5602;-76
2022/10/13 09:35:41;;;;;;;;;;;;;;;19.93;59.11;97406.31;4233854;28;5781;-76
2022/10/13 09:37:44;;;;;;;;;;;;;;;19.91;59.33;97401.19;4233719;28;5761;-76
2022/10/13 09:39:59;;;;;;;;;;;;;;;19.88;59.29;97408.91;4234076;27;5778;-76
2022/10/13 09:42:26;;;;;;;;;;;;;;;19.83;59.12;97406.13;4233932;28;5748;-75
2022/10/13 09:44:32;;;;;;;;;;;;;;;19.82;59.27;97409.84;4231540;28;5621;-75
2022/10/13 09:46:39;;;;;;;;;;;;;;;19.84;59.22;97402.38;4234107;28;5714;-75
2022/10/13 09:48:44;;;;;;;;;;;;;;;19.87;59.05;97396.53;4233662;28;5613;-75
2022/10/13 09:50:51;;;;;;;;;;;;;;;19.90;59.34;97393.38;4233421;28;5758;-75
2022/10/13 09:53:16;;;;;;;;;;;;;;;19.93;59.11;97403.63;4233648;28;5789;-75
2022/10/13 09:55:30;;;;;;;;;;;;;;;19.94;59.26;97402.59;4233979;27;5609;-75
2022/10/13 09:57:43;;;;;;;;;;;;;;;19.88;59.03;97392.81;4233716;28;5626;-75
2022/10/13 09:59:49;;;;;;;;;;;;;;;19.85;58.98;97393.28;4233750;28;5730;-76
2022/10/13 10:01:56;;;;;;;;;;;;;;;19.84;59.01;97399.72;4233948;28;5602;-76
2022/10/13 10:03:59;;;;;;;;;;;;;;;19.84;58.73;97394.34;4233594;28;5789;-76
2022/10/13 10:06:05;;;;;;;;;;;;;;;19.87;58.74;97386.63;4233623;28;5667;-76
2022/10/13 10:08:14;;;;;;;;;;;;;;;19.89;58.54;97389.06;4236972;28;5758;-75
2022/10/13 10:10:30;;;;;;;;;;;;;;;19.91;58.85;97381.59;4236805;28;5680;-75
2022/10/13 10:12:37;;;;;;;;;;;;;;;19.89;58.79;97381.81;4236703;28;5715;-75
2022/10/13 10:14:41;;;;;;;;;;;;;;;19.91;58.45;97366.31;4236732;27;5644;-75
2022/10/13 10:16:50;;;;;;;;;;;;;;;19.92;58.60;97370.59;4236752;28;5601;-75
2022/10/13 10:18:59;;;;;;;;;;;;;;;19.90;58.43;97366.53;4237045;28;5649;-76
2022/10/13 10:21:08;;;;;;;;;;;;;;;19.83;58.54;97369.38;4236461;28;5149;-76
2022/10/13 10:23:17;;;;;;;;;;;;;;;19.79;58.42;97368.22;4236604;28;5602;-74
2022/10/13 10:25:31;;;;;;;;;;;;;;;19.76;58.62;97366.81;4236686;28;5679;-76
2022/10/13 10:27:40;;;;;;;;;;;;;;;19.77;58.75;97365.75;4219778;28;5684;-75
2022/10/13 10:29:53;;;;;;;;;;;;;;;19.78;58.75;97361.22;4219567;28;5613;-75
2022/10/13 10:32:12;;;;;;;;;;;;;;;19.77;58.69;97356.91;4231927;28;5083;-75
2022/10/13 10:34:31;;;;;;;;;;;;;;;19.80;58.64;97352.91;4236518;28;5601;-76
2022/10/13 10:36:41;;;;;;;;;;;;;;;19.86;58.42;97362.72;4219609;28;6287;-76
2022/10/13 10:38:50;;;;;;;;;;;;;;;19.88;58.90;97356.06;4219727;28;5613;-76
2022/10/13 10:40:59;;;;;;;;;;;;;;;19.92;58.43;97356.38;4219606;28;5707;-76
2022/10/13 10:43:39;;;;;;;;;;;;;;;19.94;58.75;97352.44;4224152;28;6321;-76
2022/10/13 10:45:48;;;;;;;;;;;;;;;20.01;58.15;97352.28;4182128;28;6376;-76
2022/10/13 10:47:56;;;;;;;;;;;;;;;20.05;58.46;97337.34;4170678;28;5830;-75
2022/10/13 10:50:03;;;;;;;;;;;;;;;20.12;58.40;97339.84;4183900;28;5186;-76
2022/10/13 10:52:08;;;;;;;;;;;;;;;20.16;58.67;97347.22;4178748;28;5822;-75
2022/10/13 10:54:31;;;;;;;;;;;;;;;20.20;58.11;97348.34;4157928;28;5894;-75
2022/10/13 10:56:38;;;;;;;;;;;;;;;20.22;58.29;97348.91;4154740;28;5930;-75
2022/10/13 10:58:49;;;;;;;;;;;;;;;20.21;58.57;97344.59;4162746;28;5811;-69
2022/10/13 11:01:03;;;;;;;;;;;;;;;20.25;58.13;97339.56;4171522;28;5685;-66
2022/10/13 11:03:18;;;;;;;;;;;;;;;20.27;58.05;97330.22;4164167;28;5803;-66
2022/10/13 11:05:21;;;;;;;;;;;;;;;20.31;58.08;97335.91;4165610;28;6414;-67
2022/10/13 11:07:56;;;;;;;;;;;;;;;20.30;58.25;97331.59;4162862;28;6638;-67
2022/10/13 11:10:20;;;;;;;;;;;;;;;20.35;58.14;97342.41;4163542;28;5809;-67
2022/10/13 11:12:24;;;;;;;;;;;;;;;20.36;58.29;97339.50;4166655;28;5682;-66
2022/10/13 11:14:30;;;;;;;;;;;;;;;20.36;58.10;97334.13;4166618;28;5685;-66
2022/10/13 11:16:38;;;;;;;;;;;;;;;20.38;58.16;97335.75;4162146;28;5756;-65
2022/10/13 11:19:05;;;;;;;;;;;;;;;20.36;57.90;97336.81;4163809;28;5809;-65
2022/10/13 11:21:08;;;;;;;;;;;;;;;20.36;57.76;97341.38;4165441;28;5784;-65
2022/10/13 11:23:32;;;;;;;;;;;;;;;20.36;58.08;97334.13;4214101;28;5733;-65
2022/10/13 11:25:38;;;;;;;;;;;;;;;20.41;57.75;97324.53;4228460;28;5837;-66
2022/10/13 11:27:44;;;;;;;;;;;;;;;20.43;58.01;97325.13;4232649;28;5673;-66
2022/10/13 11:29:56;;;;;;;;;;;;;;;20.46;58.03;97320.09;4222605;28;5767;-65
2022/10/13 11:32:03;;;;;;;;;;;;;;;20.47;57.97;97319.03;4218483;27;6359;-65
2022/10/13 11:34:27;;;;;;;;;;;;;;;20.47;57.88;97318.22;4230733;28;5705;-65
2022/10/13 11:36:39;;;;;;;;;;;;;;;20.47;57.86;97312.84;4219067;28;5764;-66
2022/10/13 11:38:59;;;;;;;;;;;;;;;20.46;57.62;97309.34;4222070;28;5799;-66
2022/10/13 11:41:16;;;;;;;;;;;;;;;20.45;57.86;97296.97;4227368;28;5900;-66
2022/10/13 11:43:33;;;;;;;;;;;;;;;20.46;57.62;97293.22;4221467;28;5649;-66
2022/10/13 11:45:48;;;;;;;;;;;;;;;20.45;57.73;97283.56;4218788;28;5151;-66
2022/10/13 11:48:37;;;;;;;;;;;;;;;20.48;57.83;97279.56;4232295;28;7679;-66
2022/10/13 11:50:47;;;;;;;;;;;;;;;20.49;57.78;97286.56;4227395;28;5705;-66
2022/10/13 11:53:06;;;;;;;;;;;;;;;20.50;57.57;97294.41;4221373;28;5688;-65
2022/10/13 11:55:14;;;;;;;;;;;;;;;20.52;57.89;97288.78;4226507;28;5792;-66
2022/10/13 11:57:19;;;;;;;;;;;;;;;20.49;58.01;97287.38;4226972;28;5866;-66
2022/10/13 11:59:25;;;;;;;;;;;;;;;20.47;57.92;97284.13;4233306;28;5732;-66
2022/10/13 12:01:28;;;;;;;;;;;;;;;20.48;57.87;97284.94;4227554;28;5620;-66
2022/10/13 12:03:35;;;;;;;;;;;;;;;20.47;57.53;97267.19;4227959;28;5590;-66
2022/10/13 12:05:38;;;;;;;;;;;;;;;20.48;57.86;97264.25;4229113;28;5809;-67
2022/10/13 12:07:42;;;;;;;;;;;;;;;20.49;57.56;97265.06;4223943;28;5101;-65
2022/10/13 12:09:51;;;;;;;;;;;;;;;20.42;57.68;97269.78;4233212;28;5107;-66
2022/10/13 12:12:01;;;;;;;;;;;;;;;20.42;57.92;97275.16;4224825;28;5756;-65
2022/10/13 12:14:07;;;;;;;;;;;;;;;20.44;57.95;97278.44;4216875;28;5670;-66
2022/10/13 12:16:13;;;;;;;;;;;;;;;20.46;57.65;97271.75;4224095;28;5764;-65
2022/10/13 12:18:23;;;;;;;;;;;;;;;20.50;57.53;97266.69;4231400;28;5745;-66
2022/10/13 12:20:30;;;;;;;;;;;;;;;20.53;57.64;97266.22;4232375;28;5096;-66
2022/10/13 12:22:33;;;;;;;;;;;;;;;20.54;57.64;97260.59;4225369;28;5772;-66
2022/10/13 12:24:42;;;;;;;;;;;;;;;20.53;57.74;97250.13;4228698;28;5651;-65
2022/10/13 12:26:44;;;;;;;;;;;;;;;20.56;57.73;97246.94;4225325;28;5855;-65
2022/10/13 12:28:51;;;;;;;;;;;;;;;20.55;57.71;97237.25;4222182;28;5768;-65
2022/10/13 12:30:57;;;;;;;;;;;;;;;20.55;57.47;97230.00;4230711;28;5721;-65
2022/10/13 12:33:00;;;;;;;;;;;;;;;20.56;57.80;97220.88;4230280;28;5111;-65
2022/10/13 12:35:18;;;;;;;;;;;;;;;20.60;57.45;97213.13;4230873;28;5704;-66
2022/10/13 12:37:29;;;;;;;;;;;;;;;20.60;57.32;97216.63;4223087;28;5755;-65
2022/10/13 12:39:35;;;;;;;;;;;;;;;20.57;57.60;97208.25;4230186;28;5677;-66
2022/10/13 12:41:44;;;;;;;;;;;;;;;20.54;57.35;97214.94;4223836;28;5674;-66
2022/10/13 12:43:48;;;;;;;;;;;;;;;20.57;57.46;97216.31;4229101;28;5645;-66
2022/10/13 12:45:51;;;;;;;;;;;;;;;20.59;57.39;97216.88;4228133;28;5640;-66
2022/10/13 12:47:54;;;;;;;;;;;;;;;20.60;57.38;97224.69;4228960;27;5087;-66
2022/10/13 12:50:27;;;;;;;;;;;;;;;20.61;57.70;97214.75;4226637;28;5818;-67
2022/10/13 12:52:34;;;;;;;;;;;;;;;20.61;57.26;97220.13;4228580;28;5597;-65
2022/10/13 12:54:39;;;;;;;;;;;;;;;20.58;57.34;97209.88;4233280;28;5602;-66
2022/10/13 12:56:42;;;;;;;;;;;;;;;20.52;57.42;97202.84;4222516;28;6317;-66
2022/10/13 12:58:45;;;;;;;;;;;;;;;20.51;57.46;97209.25;4225832;28;5792;-66
2022/10/13 13:00:57;;;;;;;;;;;;;;;20.52;57.63;97216.25;4232323;28;5810;-66
2022/10/13 13:03:03;;;;;;;;;;;;;;;20.53;57.79;97220.56;4224094;28;5713;-66
2022/10/13 13:05:30;;;;;;;;;;;;;;;20.56;57.81;97230.81;4223950;28;5695;-66
2022/10/13 13:07:37;;;;;;;;;;;;;;;20.56;57.60;97234.31;4222854;28;5713;-66
2022/10/13 13:09:40;;;;;;;;;;;;;;;20.55;57.54;97226.50;4233685;27;5669;-67
2022/10/13 13:11:43;;;;;;;;;;;;;;;20.56;57.42;97228.94;4225187;28;6287;-66
2022/10/13 13:13:45;;;;;;;;;;;;;;;20.53;57.65;97232.13;4225138;28;5733;-66
2022/10/13 13:15:49;;;;;;;;;;;;;;;20.53;57.79;97234.81;4231665;28;6571;-67
2022/10/13 13:17:53;;;;;;;;;;;;;;;20.50;57.40;97224.56;4207968;28;5633;-67
2022/10/13 13:20:01;;;;;;;;;;;;;;;20.51;57.61;97233.44;4220609;28;6396;-66
2022/10/13 13:22:04;;;;;;;;;;;;;;;20.51;57.45;97231.56;4210006;28;5628;-66
2022/10/13 13:24:09;;;;;;;;;;;;;;;20.52;57.26;97229.69;4227110;28;5598;-66
2022/10/13 13:26:30;;;;;;;;;;;;;;;20.56;57.40;97230.81;4216300;28;5681;-66
2022/10/13 13:28:33;;;;;;;;;;;;;;;20.56;57.47;97223.56;4218016;28;5769;-66
2022/10/13 13:30:36;;;;;;;;;;;;;;;20.57;57.24;97219.00;4224346;28;5625;-66
2022/10/13 13:32:39;;;;;;;;;;;;;;;20.61;57.50;97217.44;4228637;28;5694;-66
2022/10/13 13:34:42;;;;;;;;;;;;;;;20.62;57.31;97213.72;4224861;28;5594;-66
2022/10/13 13:36:47;;;;;;;;;;;;;;;20.62;57.60;97211.03;4227069;28;5590;-66
2022/10/13 13:38:51;;;;;;;;;;;;;;;20.60;57.36;97205.06;4226693;28;5597;-66
2022/10/13 13:40:56;;;;;;;;;;;;;;;20.60;57.61;97203.19;4225194;28;5681;-66
2022/10/13 13:43:05;;;;;;;;;;;;;;;20.58;57.32;97207.19;4230492;28;5582;-66
2022/10/13 13:45:11;;;;;;;;;;;;;;;20.59;57.37;97206.13;4227501;28;5678;-66
2022/10/13 13:47:19;;;;;;;;;;;;;;;20.59;57.24;97190.84;4223176;28;5866;-66
2022/10/13 13:49:23;;;;;;;;;;;;;;;20.59;57.29;97190.03;4233266;28;5868;-66
2022/10/13 13:51:29;;;;;;;;;;;;;;;20.56;57.31;97174.41;4235658;28;5659;-66
2022/10/13 13:53:34;;;;;;;;;;;;;;;20.56;57.25;97180.59;4227555;28;5669;-65
2022/10/13 13:55:37;;;;;;;;;;;;;;;20.58;57.31;97173.09;4227002;28;5673;-65
2022/10/13 13:57:42;;;;;;;;;;;;;;;20.58;57.48;97172.28;4230251;28;5666;-66
2022/10/13 13:59:45;;;;;;;;;;;;;;;20.59;57.44;97163.16;4230368;28;5578;-66
2022/10/13 14:01:48;;;;;;;;;;;;;;;20.60;57.29;97159.41;4233743;28;5910;-66
2022/10/13 14:03:51;;;;;;;;;;;;;;;20.59;57.31;97155.09;4230651;28;5610;-66
2022/10/13 14:05:54;;;;;;;;;;;;;;;20.58;57.26;97164.22;4229479;28;5665;-66
2022/10/13 14:07:57;;;;;;;;;;;;;;;20.58;57.22;97161.53;4228612;28;5674;-66
2022/10/13 14:10:00;;;;;;;;;;;;;;;20.60;57.32;97162.09;4225808;28;5606;-66
2022/10/13 14:12:05;;;;;;;;;;;;;;;20.60;57.12;97170.97;4236371;28;5598;-66
2022/10/13 14:14:12;;;;;;;;;;;;;;;20.59;57.09;97169.34;4228813;28;5686;-65
2022/10/13 14:16:17;;;;;;;;;;;;;;;20.61;57.34;97163.72;4224111;28;5609;-66
2022/10/13 14:18:20;;;;;;;;;;;;;;;20.60;57.32;97162.09;4234553;28;5677;-67
2022/10/13 14:20:23;;;;;;;;;;;;;;;20.59;56.97;97163.16;4230577;28;5614;-66
2022/10/13 14:22:25;;;;;;;;;;;;;;;20.58;56.97;97156.97;4227948;28;5653;-67
2022/10/13 14:24:29;;;;;;;;;;;;;;;20.58;57.26;97164.22;4229608;28;6552;-66
2022/10/13 14:26:33;;;;;;;;;;;;;;;20.55;57.47;97170.09;4209645;28;6131;-65
2022/10/13 14:28:37;;;;;;;;;;;;;;;20.54;57.14;97160.41;4229536;28;5774;-67
2022/10/13 14:30:41;;;;;;;;;;;;;;;20.55;57.29;97152.09;4228052;28;5751;-65
2022/10/13 14:32:44;;;;;;;;;;;;;;;20.54;57.02;97150.50;4224380;27;6813;-65
2022/10/13 14:34:47;;;;;;;;;;;;;;;20.54;57.53;97155.84;4229325;28;5659;-66
2022/10/13 14:36:51;;;;;;;;;;;;;;;20.53;57.48;97156.94;4226764;28;5811;-66
2022/10/13 14:38:54;;;;;;;;;;;;;;;20.53;57.22;97148.88;4225082;28;5598;-65
2022/10/13 14:41:00;;;;;;;;;;;;;;;20.54;57.18;97147.00;4232459;28;5685;-66
2022/10/13 14:43:03;;;;;;;;;;;;;;;20.54;57.49;97141.63;4222616;28;5737;-65
2022/10/13 14:45:07;;;;;;;;;;;;;;;20.53;57.00;97137.31;4226444;28;6555;-65
2022/10/13 14:47:11;;;;;;;;;;;;;;;20.52;57.18;97135.69;4228964;28;5696;-65
2022/10/13 14:49:14;;;;;;;;;;;;;;;20.53;57.49;97138.13;4232196;28;6398;-66
2022/10/13 14:51:17;;;;;;;;;;;;;;;20.54;57.01;97137.06;4233109;28;5605;-66
2022/10/13 14:53:20;;;;;;;;;;;;;;;20.53;56.93;97143.50;4233764;28;5614;-66
2022/10/13 14:55:23;;;;;;;;;;;;;;;20.54;57.40;97144.31;4222949;28;5668;-66
2022/10/13 14:57:28;;;;;;;;;;;;;;;20.53;57.18;97138.13;4224909;28;5769;-66
2022/10/13 14:59:31;;;;;;;;;;;;;;;20.53;57.38;97145.38;4225926;28;5704;-66
2022/10/13 15:01:34;;;;;;;;;;;;;;;20.53;57.39;97154.25;4229801;28;5095;-66
2022/10/13 15:03:38;;;;;;;;;;;;;;;20.53;57.44;97158.81;4227571;28;5728;-66
2022/10/13 15:05:41;;;;;;;;;;;;;;;20.53;57.33;97154.25;4223114;28;5613;-65
2022/10/13 15:07:44;;;;;;;;;;;;;;;20.53;57.32;97145.38;4228558;28;5653;-65
2022/10/13 15:09:47;;;;;;;;;;;;;;;20.53;57.49;97142.69;4232475;27;5138;-66
2022/10/13 15:12:06;;;;;;;;;;;;;;;20.53;57.40;97145.38;4224194;27;5621;-66
2022/10/13 15:14:09;;;;;;;;;;;;;;;20.53;57.35;97142.69;4223008;28;6307;-65
2022/10/13 15:16:16;;;;;;;;;;;;;;;20.52;57.52;97143.75;4223459;28;5673;-65
2022/10/13 15:18:18;;;;;;;;;;;;;;;20.53;57.18;97140.00;4226279;28;5716;-65
2022/10/13 15:20:23;;;;;;;;;;;;;;;20.52;57.02;97141.06;4227092;28;5590;-65
2022/10/13 15:22:25;;;;;;;;;;;;;;;20.52;57.20;97149.13;4225509;28;5760;-65
2022/10/13 15:24:28;;;;;;;;;;;;;;;20.51;57.52;97144.81;4226681;28;5680;-66
2022/10/13 15:26:32;;;;;;;;;;;;;;;20.49;57.27;97139.66;4226527;28;5617;-66
2022/10/13 15:28:37;;;;;;;;;;;;;;;20.49;57.10;97141.53;4232430;27;5626;-65
2022/10/13 15:30:40;;;;;;;;;;;;;;;20.48;57.27;97142.59;4227710;28;5606;-66
2022/10/13 15:32:43;;;;;;;;;;;;;;;20.47;57.56;97144.47;4234113;28;5815;-66
2022/10/13 15:34:46;;;;;;;;;;;;;;;20.48;57.46;97137.22;4226515;27;5752;-66
2022/10/13 15:36:50;;;;;;;;;;;;;;;20.47;57.52;97143.66;4230928;28;5747;-65
2022/10/13 15:38:53;;;;;;;;;;;;;;;20.45;57.49;97138.53;4230289;28;5673;-65
2022/10/13 15:40:59;;;;;;;;;;;;;;;20.46;57.20;97158.16;4217972;28;5768;-66
2022/10/13 15:43:02;;;;;;;;;;;;;;;20.43;57.67;97143.34;4217951;28;5685;-66
2022/10/13 15:45:05;;;;;;;;;;;;;;;20.43;57.55;97140.66;4231223;28;5684;-65
2022/10/13 15:47:13;;;;;;;;;;;;;;;20.43;57.46;97145.22;4229288;28;5692;-65
2022/10/13 15:49:19;;;;;;;;;;;;;;;20.42;57.24;97147.09;4223041;28;5700;-66
2022/10/13 15:51:25;;;;;;;;;;;;;;;20.42;57.31;97159.69;4222974;27;5684;-66
2022/10/13 15:53:31;;;;;;;;;;;;;;;20.42;57.74;97147.09;4227826;27;5764;-66
2022/10/13 15:55:33;;;;;;;;;;;;;;;20.41;57.69;97150.00;4227951;27;5676;-63
2022/10/13 15:57:36;;;;;;;;;;;;;;;20.41;57.74;97160.75;4220445;27;5679;-65
2022/10/13 15:59:39;;;;;;;;;;;;;;;20.39;57.47;97152.13;4228559;27;5636;-65
2022/10/13 16:01:42;;;;;;;;;;;;;;;20.38;57.81;97150.47;4227193;27;5800;-66
2022/10/13 16:03:45;;;;;;;;;;;;;;;20.36;57.57;97148.84;4228244;27;5682;-66
2022/10/13 16:05:49;;;;;;;;;;;;;;;20.35;57.48;97147.22;4228996;27;5407;-65
2022/10/13 16:07:51;;;;;;;;;;;;;;;20.34;57.49;97148.28;4220463;28;5823;-64
2022/10/13 16:09:56;;;;;;;;;;;;;;;20.33;57.79;97146.66;4226396;28;5714;-65
2022/10/13 16:11:59;;;;;;;;;;;;;;;20.33;57.94;97153.91;4236654;27;5889;-66
2022/10/13 16:14:02;;;;;;;;;;;;;;;20.32;57.75;97153.09;4227837;28;5717;-66
2022/10/13 16:16:05;;;;;;;;;;;;;;;20.31;58.20;97156.84;4229406;27;5598;-64
2022/10/13 16:18:08;;;;;;;;;;;;;;;20.31;58.30;97156.84;4228328;28;6427;-65
2022/10/13 16:20:12;;;;;;;;;;;;;;;20.30;57.88;97154.41;4227266;28;6867;-67
2022/10/13 16:22:16;;;;;;;;;;;;;;;20.31;57.88;97161.41;4229066;28;5605;-66
2022/10/13 16:24:20;;;;;;;;;;;;;;;20.31;58.31;97156.03;4229019;28;5613;-67
2022/10/13 16:26:24;;;;;;;;;;;;;;;20.30;58.45;97160.59;4227022;28;5776;-67
2022/10/13 16:28:27;;;;;;;;;;;;;;;20.28;58.53;97157.34;4226776;27;6405;-66
2022/10/13 16:30:30;;;;;;;;;;;;;;;20.27;58.11;97152.19;4230084;28;5693;-66
2022/10/13 16:32:38;;;;;;;;;;;;;;;20.27;58.58;97154.88;4223749;28;5637;-66
2022/10/13 16:34:41;;;;;;;;;;;;;;;20.26;58.49;97154.06;4232623;28;5750;-67
2022/10/13 16:36:43;;;;;;;;;;;;;;;20.26;58.32;97159.44;4226667;27;5851;-66
2022/10/13 16:38:47;;;;;;;;;;;;;;;20.25;58.54;97162.38;4229306;28;5716;-66